X  Chiuso Dati meteorologici dell'aviazione (METAR)     LIML Milano Linate Airport
Temperatura
26°C Temperatura
18°C Punto di rugiada
61% Umidità



Vento
5 KM/O
3 MPH
1 M/S
3 KTS



300°
ONO
Condizioni attuali

Prevalentemente nuvoloso Prevalentemente nuvoloso
Pressione 1015.92 (hPa) - 30 (inHg)
Visibilità 6.2 (miglio) - 10 (km)
Aeroporto
Codice-Aeroporto LIML

Posizione: Milano Linate Airport
Distanza: 6 (km)

Metar:
LIML 141550Z 30003KT 240V350 9999 BKN100 26/18 Q1016 NOSIG

Ore: 14-09-2021 17:50 CEST